createdAt,value
2019-02-08T00:01:36.193Z,8.07
2019-02-08T00:04:05.682Z,4.47
2019-02-08T00:06:34.900Z,8.23
2019-02-08T00:09:05.827Z,6.97
2019-02-08T00:11:35.070Z,9.37
2019-02-08T00:14:04.700Z,7.13
2019-02-08T00:16:33.935Z,3.43
2019-02-08T00:19:03.182Z,9.73
2019-02-08T00:21:32.557Z,8.70
2019-02-08T00:24:02.216Z,7.53
2019-02-08T00:26:31.465Z,6.77
2019-02-08T00:29:00.758Z,8.13
2019-02-08T00:31:30.001Z,7.57
2019-02-08T00:33:59.274Z,7.53
2019-02-08T00:36:28.596Z,6.67
2019-02-08T00:38:57.924Z,6.60
2019-02-08T00:41:27.361Z,12.27
2019-02-08T00:43:56.610Z,6.57
2019-02-08T00:46:26.262Z,5.83
2019-02-08T00:48:55.507Z,9.07
2019-02-08T00:51:24.722Z,5.70
2019-02-08T00:53:53.993Z,12.73
2019-02-08T00:56:23.214Z,8.13
2019-02-08T00:58:52.526Z,7.30
2019-02-08T01:01:21.882Z,8.97
2019-02-08T01:03:51.281Z,12.47
2019-02-08T01:06:20.520Z,7.43
2019-02-08T01:08:49.789Z,7.93
2019-02-08T01:11:18.999Z,7.57
2019-02-08T01:13:48.428Z,7.50
2019-02-08T01:16:17.622Z,7.73
2019-02-08T01:18:47.311Z,13.40
2019-02-08T01:21:16.558Z,10.83
2019-02-08T01:23:45.990Z,8.30
2019-02-08T01:26:15.272Z,9.17
2019-02-08T01:28:44.567Z,12.23
2019-02-08T01:31:13.847Z,9.50
2019-02-08T01:33:43.128Z,7.27
2019-02-08T01:36:12.490Z,13.70
2019-02-08T01:38:41.751Z,12.87
2019-02-08T01:41:11.037Z,7.97
2019-02-08T01:43:40.297Z,13.90
2019-02-08T01:46:09.569Z,11.20
2019-02-08T01:48:38.812Z,11.47
2019-02-08T01:51:08.623Z,9.40
2019-02-08T01:53:37.908Z,10.00
2019-02-08T01:56:07.217Z,13.40
2019-02-08T01:58:36.499Z,13.90
2019-02-08T02:01:05.970Z,11.63
2019-02-08T02:03:35.348Z,13.20
2019-02-08T02:06:04.916Z,13.17
2019-02-08T02:08:34.179Z,12.83
2019-02-08T02:11:03.395Z,15.30
2019-02-08T02:13:32.879Z,14.50
2019-02-08T02:16:02.134Z,11.23
2019-02-08T02:18:31.422Z,11.10
2019-02-08T02:21:00.746Z,11.77
2019-02-08T02:23:30.055Z,14.33
2019-02-08T02:25:59.395Z,13.77
2019-02-08T02:28:28.656Z,15.30
2019-02-08T02:30:57.896Z,12.93
2019-02-08T02:33:27.129Z,12.73
2019-02-08T02:35:56.447Z,11.60
2019-02-08T02:38:25.687Z,13.53
2019-02-08T02:40:55.008Z,13.03
2019-02-08T02:43:24.263Z,12.50
2019-02-08T02:45:53.576Z,16.07
2019-02-08T02:48:22.960Z,16.43
2019-02-08T02:50:52.183Z,16.70
2019-02-08T02:53:21.609Z,21.67
2019-02-08T02:55:50.970Z,16.17
2019-02-08T02:58:20.236Z,11.10
2019-02-08T03:00:49.648Z,14.17
2019-02-08T03:03:18.981Z,13.23
2019-02-08T03:05:47.123Z,11.40
2019-02-08T03:08:17.320Z,21.47
2019-02-08T03:10:46.924Z,16.17
2019-02-08T03:13:16.209Z,13.40
2019-02-08T03:15:45.449Z,18.17
2019-02-08T03:18:14.697Z,13.13
2019-02-08T03:20:43.944Z,17.40
2019-02-08T03:23:13.459Z,16.50
2019-02-08T03:25:42.715Z,23.43
2019-02-08T03:28:11.966Z,15.83
2019-02-08T03:31:06.138Z,21.47
2019-02-08T03:33:35.355Z,17.40
2019-02-08T03:36:04.594Z,14.37
2019-02-08T03:38:33.833Z,14.47
2019-02-08T03:41:03.256Z,18.80
2019-02-08T03:43:33.077Z,15.60
2019-02-08T03:46:02.371Z,20.17
2019-02-08T03:48:31.591Z,16.47
2019-02-08T03:53:56.362Z,19.07
2019-02-08T03:57:04.998Z,17.60
2019-02-08T03:59:34.424Z,16.07
2019-02-08T04:02:03.686Z,16.90
2019-02-08T04:05:12.358Z,18.37
2019-02-08T04:07:41.585Z,15.53
2019-02-08T04:10:51.071Z,19.73
2019-02-08T04:13:59.713Z,18.40
2019-02-08T04:16:28.937Z,18.43
2019-02-08T04:18:58.147Z,17.73
2019-02-08T04:21:27.398Z,15.90
2019-02-08T04:27:05.303Z,17.00
2019-02-08T04:29:34.508Z,18.17
2019-02-08T04:32:03.757Z,16.63
2019-02-08T04:34:32.976Z,20.93
2019-02-08T04:37:02.233Z,16.17
2019-02-08T04:39:31.547Z,14.87
2019-02-08T04:42:40.206Z,19.43
2019-02-08T04:45:49.264Z,18.30
2019-02-08T04:48:18.478Z,17.33
2019-02-08T04:51:27.153Z,23.13
2019-02-08T04:53:56.355Z,15.20
2019-02-08T04:57:05.018Z,16.23
2019-02-08T04:59:34.261Z,15.83
2019-02-08T05:04:58.608Z,19.00
2019-02-08T05:07:27.819Z,16.43
2019-02-08T05:15:47.764Z,17.73
2019-02-08T05:18:16.990Z,15.83
2019-02-08T05:20:46.241Z,20.83
2019-02-08T05:26:24.090Z,18.27
2019-02-08T05:29:32.707Z,16.50
2019-02-08T05:32:01.943Z,19.63
2019-02-08T05:35:10.610Z,15.07
2019-02-08T05:40:41.940Z,14.67
2019-02-08T05:46:19.840Z,13.53
2019-02-08T05:51:57.667Z,14.70
2019-02-08T05:54:26.899Z,12.97
2019-02-08T05:56:56.140Z,14.83
2019-02-08T06:05:29.901Z,17.87
2019-02-08T06:08:38.692Z,13.00
2019-02-08T06:11:47.353Z,12.87
2019-02-08T06:14:35.864Z,12.20
2019-02-08T06:20:59.464Z,17.60
2019-02-08T06:26:30.097Z,11.07
2019-02-08T06:28:59.406Z,10.37
2019-02-08T06:31:28.629Z,12.57
2019-02-08T06:33:57.861Z,12.93
2019-02-08T06:42:18.002Z,14.43
2019-02-08T06:44:47.250Z,15.83
2019-02-08T06:50:52.575Z,10.30
2019-02-08T06:54:01.269Z,10.37
2019-02-08T07:02:39.479Z,14.70
2019-02-08T07:05:48.601Z,9.83
2019-02-08T07:08:36.747Z,12.27
2019-02-08T07:11:15.083Z,14.57
2019-02-08T07:14:03.256Z,13.57
2019-02-08T07:17:11.905Z,15.10
2019-02-08T07:19:48.234Z,12.30
2019-02-08T07:22:27.659Z,11.50
2019-02-08T07:25:18.511Z,10.73
2019-02-08T07:28:26.642Z,14.30
2019-02-08T07:31:11.212Z,12.43
2019-02-08T07:33:59.329Z,10.23
2019-02-08T07:37:07.997Z,7.07
2019-02-08T07:40:16.629Z,8.17
2019-02-08T07:43:25.273Z,9.17
2019-02-08T07:46:33.954Z,8.33
2019-02-08T07:49:42.603Z,13.43
2019-02-08T07:52:30.682Z,9.53
2019-02-08T07:55:25.795Z,13.30
2019-02-08T08:01:37.783Z,11.10
2019-02-08T08:04:46.778Z,10.50
2019-02-08T08:11:04.040Z,7.67
2019-02-08T08:14:12.681Z,10.13
2019-02-08T08:17:21.426Z,11.57
2019-02-08T08:20:30.053Z,15.13
2019-02-08T08:23:38.725Z,9.43
2019-02-08T08:26:47.354Z,10.83
2019-02-08T08:29:56.353Z,17.70
2019-02-08T08:33:05.641Z,12.27
2019-02-08T08:36:13.019Z,10.60
2019-02-08T08:39:20.369Z,10.33
2019-02-08T08:42:27.698Z,12.63
2019-02-08T08:45:43.195Z,13.07
2019-02-08T08:48:50.606Z,16.40
2019-02-08T08:51:57.953Z,16.17
2019-02-08T08:55:05.268Z,18.90
2019-02-08T08:58:12.570Z,13.37
2019-02-08T09:01:19.912Z,13.93
2019-02-08T09:04:27.293Z,16.47
2019-02-08T09:14:12.605Z,14.33
2019-02-08T09:17:19.959Z,16.70
2019-02-08T09:20:27.346Z,13.97
2019-02-08T09:26:36.893Z,19.83
2019-02-08T09:32:39.372Z,15.60
2019-02-08T09:35:46.701Z,14.07
2019-02-08T09:42:23.079Z,10.40
2019-02-08T09:48:31.862Z,12.20
2019-02-08T09:51:46.222Z,14.57
2019-02-08T09:54:55.640Z,16.20
2019-02-08T09:58:02.968Z,12.10
2019-02-08T10:01:10.302Z,16.03
2019-02-08T10:04:17.655Z,16.27
2019-02-08T10:10:47.323Z,12.17
2019-02-08T10:13:54.692Z,15.20
2019-02-08T10:17:03.040Z,15.27
2019-02-08T10:20:12.128Z,15.17
2019-02-08T10:26:14.096Z,14.57
2019-02-08T10:29:21.425Z,14.27
2019-02-08T10:32:28.772Z,15.40
2019-02-08T10:42:51.616Z,17.60
2019-02-08T10:48:53.668Z,19.47
2019-02-08T10:52:00.994Z,13.13
2019-02-08T10:55:08.384Z,16.33
2019-02-08T10:58:15.705Z,15.10
2019-02-08T11:01:23.052Z,16.73
2019-02-08T11:04:50.540Z,14.77
2019-02-08T11:07:57.868Z,15.87
2019-02-08T11:11:05.232Z,16.60
2019-02-08T11:14:12.567Z,17.83
2019-02-08T11:17:19.925Z,16.93
2019-02-08T11:23:03.978Z,16.83
2019-02-08T11:28:41.885Z,16.87
2019-02-08T11:31:11.177Z,17.93
2019-02-08T11:33:40.479Z,16.90
2019-02-08T11:36:49.136Z,15.73
2019-02-08T11:40:00.887Z,15.30
2019-02-08T11:42:30.157Z,19.73
2019-02-08T11:47:54.983Z,16.17
2019-02-08T11:50:24.271Z,35.67
2019-02-08T11:55:48.526Z,14.03
2019-02-08T11:58:57.220Z,13.97
2019-02-08T12:04:16.316Z,19.13
2019-02-08T12:09:54.220Z,15.03
2019-02-08T12:12:23.502Z,12.93
2019-02-08T12:14:52.780Z,12.90
2019-02-08T12:17:22.009Z,11.60
2019-02-08T12:20:30.654Z,12.93
2019-02-08T12:22:59.896Z,11.23
2019-02-08T12:25:29.114Z,10.43
2019-02-08T12:27:58.374Z,10.10
2019-02-08T12:30:33.536Z,13.63
2019-02-08T12:33:02.780Z,9.07
2019-02-08T12:35:32.194Z,9.87
2019-02-08T12:38:40.906Z,11.60
2019-02-08T12:41:10.183Z,8.30
2019-02-08T12:43:39.479Z,9.63
2019-02-08T12:46:08.811Z,11.03
2019-02-08T12:48:38.056Z,7.93
2019-02-08T12:51:46.706Z,14.83
2019-02-08T12:54:16.037Z,8.53
2019-02-08T12:56:45.889Z,8.97
2019-02-08T12:59:16.169Z,8.83
2019-02-08T13:01:45.386Z,9.03
2019-02-08T13:04:14.663Z,7.47
2019-02-08T13:07:23.330Z,9.77
2019-02-08T13:10:12.538Z,8.33
2019-02-08T13:12:41.785Z,7.67
2019-02-08T13:15:50.729Z,6.93
2019-02-08T13:18:59.729Z,12.57
2019-02-08T13:21:29.036Z,7.13
2019-02-08T13:23:58.278Z,7.80
2019-02-08T13:26:27.536Z,8.70
2019-02-08T13:28:56.802Z,7.37
2019-02-08T13:31:26.206Z,7.03
2019-02-08T13:39:41.253Z,7.50
2019-02-08T13:42:10.511Z,8.77
2019-02-08T13:44:39.706Z,10.20
2019-02-08T13:47:27.962Z,9.17
2019-02-08T13:49:57.217Z,11.73
2019-02-08T13:52:26.475Z,8.47
2019-02-08T13:54:56.059Z,12.57
2019-02-08T13:57:25.306Z,9.47
2019-02-08T13:59:54.549Z,9.57
2019-02-08T14:02:23.828Z,9.83
2019-02-08T14:04:53.057Z,8.10
2019-02-08T14:07:22.283Z,7.30
2019-02-08T14:09:51.476Z,7.70
2019-02-08T14:12:20.761Z,6.93
2019-02-08T14:15:29.387Z,7.30
2019-02-08T14:17:58.643Z,7.07
2019-02-08T14:23:36.619Z,8.33
2019-02-08T14:26:06.049Z,5.93
2019-02-08T14:28:35.421Z,5.60
2019-02-08T14:31:04.780Z,3.33
2019-02-08T14:33:34.298Z,3.93
2019-02-08T14:36:03.513Z,6.13
2019-02-08T14:38:32.748Z,5.23
2019-02-08T14:41:01.994Z,6.90
2019-02-08T14:43:31.262Z,4.80
2019-02-08T14:46:00.456Z,3.73
2019-02-08T14:48:29.747Z,5.07
2019-02-08T14:50:59.016Z,7.20
2019-02-08T14:53:28.604Z,6.83
2019-02-08T14:55:58.350Z,2.90
2019-02-08T14:58:27.610Z,5.47
2019-02-08T15:00:56.876Z,6.27
2019-02-08T15:03:26.098Z,7.20
2019-02-08T15:05:55.441Z,4.73
2019-02-08T15:08:24.714Z,5.20
2019-02-08T15:18:30.037Z,4.90
2019-02-08T16:02:24.250Z,6.27
2019-02-08T16:06:01.522Z,5.60
2019-02-08T16:19:28.016Z,6.20
2019-02-08T16:21:57.268Z,5.90
2019-02-08T16:24:26.509Z,8.20
2019-02-08T16:26:55.753Z,9.07
2019-02-08T16:29:25.014Z,8.37
2019-02-08T16:31:54.350Z,8.77
2019-02-08T16:37:03.853Z,6.50
2019-02-08T16:39:34.477Z,6.20
2019-02-08T16:42:03.733Z,3.73
2019-02-08T16:44:33.027Z,6.20
2019-02-08T16:47:02.262Z,8.17
2019-02-08T16:49:31.504Z,8.67
2019-02-08T16:52:00.818Z,5.17
2019-02-08T16:54:30.086Z,10.60
2019-02-08T16:56:59.355Z,5.53
2019-02-08T16:59:28.641Z,8.37
2019-02-08T17:01:57.903Z,12.30
2019-02-08T17:04:27.121Z,10.13
2019-02-08T17:06:56.377Z,7.67
2019-02-08T17:09:25.639Z,10.23
2019-02-08T17:12:34.364Z,11.13
2019-02-08T17:15:04.158Z,18.73
2019-02-08T17:17:33.824Z,7.00
2019-02-08T17:20:03.085Z,10.83
2019-02-08T17:22:32.323Z,13.00
2019-02-08T17:25:01.588Z,8.90
2019-02-08T17:27:30.866Z,11.53
2019-02-08T17:30:00.202Z,15.87
2019-02-08T17:32:29.559Z,10.47
2019-02-08T17:34:58.864Z,8.20
2019-02-08T17:37:28.153Z,10.77
2019-02-08T17:39:57.449Z,9.57
2019-02-08T17:42:26.866Z,12.30
2019-02-08T17:44:56.136Z,7.60
2019-02-08T17:47:25.712Z,7.63
2019-02-08T17:49:54.935Z,16.20
2019-02-08T17:52:24.317Z,24.37
2019-02-08T17:54:53.552Z,9.87
2019-02-08T17:57:22.848Z,4.87
2019-02-08T17:59:52.144Z,5.67
2019-02-08T18:02:21.900Z,7.53
2019-02-08T18:04:52.602Z,5.90
2019-02-08T18:07:22.055Z,8.80
2019-02-08T18:09:51.378Z,10.20
2019-02-08T18:12:20.789Z,8.70
2019-02-08T18:14:50.082Z,14.40
2019-02-08T18:17:19.352Z,8.53
2019-02-08T18:19:48.602Z,8.07
2019-02-08T18:22:17.914Z,6.67
2019-02-08T18:25:06.563Z,8.03
2019-02-08T18:30:38.262Z,11.17
2019-02-08T18:33:07.869Z,4.03
2019-02-08T18:35:37.131Z,5.30
2019-02-08T18:38:46.654Z,11.13
2019-02-08T18:41:15.944Z,7.77
2019-02-08T18:43:45.209Z,7.60
2019-02-08T18:46:14.502Z,6.20
2019-02-08T18:48:43.792Z,7.70
2019-02-08T18:51:13.117Z,7.07
2019-02-08T18:53:42.476Z,8.33
2019-02-08T18:56:11.828Z,6.53
2019-02-08T18:58:41.221Z,14.87
2019-02-08T19:01:10.638Z,12.63
2019-02-08T19:03:39.932Z,11.00
2019-02-08T19:06:09.228Z,9.60
2019-02-08T19:08:38.704Z,9.40
2019-02-08T19:11:07.943Z,11.43
2019-02-08T19:13:37.279Z,6.53
2019-02-08T19:16:45.942Z,8.03
2019-02-08T19:19:15.241Z,18.50
2019-02-08T19:22:03.521Z,11.87
2019-02-08T19:24:32.838Z,5.23
2019-02-08T19:27:02.355Z,4.77
2019-02-08T19:29:31.677Z,4.63
2019-02-08T19:32:01.157Z,3.80
2019-02-08T19:34:31.065Z,4.77
2019-02-08T19:37:00.383Z,4.90
2019-02-08T19:39:29.762Z,7.57
2019-02-08T19:41:59.014Z,6.27
2019-02-08T19:44:28.346Z,7.53
2019-02-08T19:46:57.620Z,6.73
2019-02-08T19:49:26.947Z,5.27
2019-02-08T19:51:56.199Z,4.53
2019-02-08T19:54:25.642Z,4.13
2019-02-08T19:56:54.957Z,9.70
2019-02-08T19:59:43.355Z,11.10
2019-02-08T20:02:20.106Z,5.03
2019-02-08T20:04:49.601Z,4.47
2019-02-08T20:07:18.917Z,8.20
2019-02-08T20:10:07.203Z,5.23
2019-02-08T20:12:37.233Z,8.63
2019-02-08T20:15:46.663Z,11.83
2019-02-08T20:18:16.285Z,5.90
2019-02-08T20:20:45.618Z,7.03
2019-02-08T20:23:15.018Z,7.83
2019-02-08T20:25:46.210Z,10.70
2019-02-08T20:28:15.446Z,3.07
2019-02-08T20:30:45.065Z,8.17
2019-02-08T20:33:58.202Z,8.10
2019-02-08T20:37:29.560Z,9.10
2019-02-08T20:51:02.095Z,7.10
2019-02-08T20:54:53.763Z,13.40
2019-02-08T20:57:50.607Z,11.33
2019-02-08T21:01:45.861Z,6.43
2019-02-08T21:04:51.176Z,4.97
2019-02-08T21:19:23.659Z,6.47
2019-02-08T21:25:34.216Z,8.63
2019-02-08T21:28:47.125Z,7.03
2019-02-08T21:32:20.323Z,4.10
2019-02-08T21:38:37.693Z,11.17
2019-02-08T21:42:09.413Z,5.70
2019-02-08T21:45:39.438Z,6.47
2019-02-08T21:49:02.400Z,4.13
2019-02-08T22:03:06.447Z,5.50
2019-02-08T22:27:42.223Z,6.17
2019-02-08T22:38:42.255Z,6.47
2019-02-08T22:56:43.387Z,4.63
2019-02-08T23:00:28.921Z,9.43
2019-02-08T23:03:31.750Z,5.57
2019-02-08T23:11:16.423Z,6.27
2019-02-08T23:14:17.444Z,7.77
2019-02-08T23:17:31.689Z,5.47
2019-02-08T23:20:54.909Z,4.60
2019-02-08T23:24:13.198Z,6.83
2019-02-08T23:49:47.387Z,6.07
2019-02-08T23:52:16.628Z,5.60
2019-02-08T23:54:45.842Z,7.80
2019-02-08T23:57:15.063Z,7.00
2019-02-08T23:59:44.342Z,4.23
